Terminal Aerodrome Forecast
Issued by NWS

Home | Current Version | Previous Version | Text Only | Print | Product List | Glossary On
Versions: 1 2 3 4 5 6 7 8 9 10 11 12 13 14 15 16 17 18 19 20 21 22 23 24 25 26 27 28 29 30 31 32 33 34 35 36
181
FTUS45 KGJT 210545
TAFCNY
TAF
KCNY 210545Z 2106/2206 12008KT P6SM OVC100
     FM210900 12007KT 5SM -SN SCT020 BKN040
     FM211100 14007KT 3SM -SN SCT015 BKN030
     FM211700 24011KT 4SM -SHSNRA SCT020 BKN040
     FM212200 27011KT P6SM VCSH OVC040
     FM220400 26007KT P6SM SCT150=

USA.gov is the U.S. government's official web portal to all federal, state and local government web resources and services.